Bennett, Colorado
Current Conditions -  °F | °C
As of 2:47 PM on Saturday 25 Oct 2014 (Local Time) from KFTG Reporting Station
Clear Clear  
Wind Chill: 81°   Ceiling: Unl
Heat Index: 81°   Visibility: 50mi
Dew Point: 25°   Wind: 16mph
Humidity: 13%   Direction: 100°E
Pressure: 30.14"   Gusts: 24mph
Location:  39.76°N, 104.43°W
Report Text: KFTG 252047Z 10014G21KT 50SM SKC 27/M04 A3014
Loading
Personal Weather Stations






























Interactive Weather Map New forecast layout! Learn more

10-Day Weather Forecast

Advertisements
Track Severe Weather on mobile